To NAV CANADA Home Page Login to a new session Search on AWWS site Disclaimer Vers la page française équivalente Tips FAQ What's new on the site To the Forecasts and Observations / NOTAM section To "File a Flight Plan" website Publications and other links Update of the User's profile FIC Telephone Numbers My Weather Data Folder Route Weather Data Regional Weather Data Local Weather Data To the Forecasts and Observations / NOTAM section
Request Generated 03/19/2019 at 23:04:47 UTC . Weather information available at that time is displayed.

METAR/TAF

KUUJJUARAPIK/QC    (show WxCam)

METAR CYGW 192300Z AUTO 18017G24KT 2 1/4SM -SN OVC030 M05/M08 A2975 RMK SLP078=
SPECI CYGW 192259Z AUTO 18015G24KT 2 1/4SM -SN OVC030 M05/M08 A2975 RMK SLP077=
SPECI CYGW 192256Z AUTO 18017G25KT 3SM -SN OVC030 M05/M08 A2975 RMK SLP077=
SPECI CYGW 192251Z AUTO 18017G27KT 1 3/4SM -SN OVC028 M05/M08 A2975 RMK VIS VRB 5/8-3 SLP077=
SPECI CYGW 192247Z AUTO 18016G27KT 1 1/4SM -SN OVC026 M05/M08 A2975 RMK VIS VRB 5/8-3 SLP077=
SPECI CYGW 192227Z AUTO 18019G27KT 3/4SM -SN BKN024 OVC036 M05/M08 A2976 RMK SLP080=
SPECI CYGW 192222Z AUTO 18019G28KT 1 1/2SM -SN BKN028 BKN038 M05/M08 A2976 RMK VIS VRB 3/4-3 SLP082=
SPECI CYGW 192213Z AUTO 18020G28KT 2 1/4SM -SN BKN035 M05/M09 A2977 RMK VIS VRB 1 1/2-3 SLP083=
SPECI CYGW 192210Z AUTO 17018G28KT 2 1/2SM -SN BKN035 M05/M09 A2976 RMK VIS VRB 1 1/2-3 SLP082=
SPECI CYGW 192206Z AUTO 17016G24KT 5SM -SN SCT037 BKN070 M06/M09 A2976 RMK SLP082=
METAR CYGW 192200Z AUTO 17015G22KT 9SM -SN FEW037 SCT065 M06/M09 A2977 RMK SLP084=
SPECI CYGW 192149Z AUTO 16015G27KT 7SM -SN SCT065 M06/M09 A2977 RMK SLP085=
SPECI CYGW 192137Z AUTO 17018G27KT 5SM -SN FEW027 BKN065 M06/M10 A2977 RMK SLP085=
SPECI CYGW 192131Z AUTO 16013G23KT 6SM -SN FEW029 SCT038 BKN065 M06/M10 A2978 RMK SLP087=
SPECI CYGW 192127Z AUTO 16015G24KT 3SM -SN SCT032 SCT041 BKN060 BKN072 M06/M09 A2978 RMK PRESFR SLP088=
SPECI CYGW 192124Z AUTO 16015G24KT 2 1/2SM -SN SCT030 BKN039 BKN060 BKN072 M06/M09 A2978 RMK VIS VRB 1-3 PRESFR SLP089=
SPECI CYGW 192120Z AUTO 17017G25KT 2 1/4SM -SN SCT030 BKN039 OVC060 M06/M10 A2979 RMK VIS VRB 1-3 PRESFR SLP090=
METAR CYGW 192100Z AUTO 17016G26KT 4SM -SN OVC041 M06/M10 A2981 RMK SLP097=

TAF AMD CYGW 192226Z 1922/2006 18018G28KT 1SM -SHSN BLSN OVC020 TEMPO
1922/1924 6SM -SN OVC025
FM200000 22015KT 2SM -SN OVC007 TEMPO 2000/2006 6SM -SN OVC012
PROB30 2000/2006 1SM -FZDZ BR OVC005
RMK FCST BASED ON AUTO OBS. NXT FCST BY 200000Z=
Your time UTC time
Weather data provided by Environment Canada and NAV CANADA